Alpine, AK

11:14 PM AKDT on July 11, 2014 (GMT -0800)
Nuiqsut (PAQT) Elev 39 ft | 70.21 °N, 150.99 °W | Change Station

Current weather conditions updated 21 minutes ago

Overcast
Overcast
43 °F
Feels Like 38 °F
N
9
Wind Variable Wind from North

Tomorrow is forecast to be Warmer than today. Periods of light rain tomorrow night.

Today
High -- | Low -- °F
--% Chance of Precip.
Yesterday
High -- | Low -- °F
Precip. -- in
2:00 PM 2:00 PM
Full, 100% visible
Pressure 29.61 in
Visibility 10.0 miles
Clouds Mostly Cloudy 600 ft
Mostly Cloudy 9500 ft
Overcast 12000 ft
Windchill 38 °F
Dew Point 40 °F
Humidity 89%
Rainfall 0.00 in
Snow Depth Not available.
UV 0 out of 12
Pollen Not available.
Air Quality Not available.
Flu Activity Sporadic
METAR PAQT 120653Z AUTO 35008KT 10SM BKN006 BKN095 OVC120 06/04 A2960 RMK SLP026 T00610044 TSNO VIA AUTODIAL

More Conditions Fewer Conditions

Pressure 29.61 in
Visibility 10.0 miles
Clouds Mostly Cloudy 600 ft
Mostly Cloudy 9500 ft
Overcast 12000 ft
Windchill 38 °F
Dew Point 40 °F
Humidity 89%
Rainfall 0.00 in
Snow Depth Not available.
UV 0 out of 12
Pollen Not available.
Air Quality Not available.
Flu Activity Sporadic
METAR PAQT 120653Z AUTO 35008KT 10SM BKN006 BKN095 OVC120 06/04 A2960 RMK SLP026 T00610044 TSNO VIA AUTODIAL

More Conditions Fewer Conditions

10-Day Weather Forecast

Almanac

Astronomy

Jul. 11, 2014 Rise Set
Actual Time Sun does not rise Sun does not rise
Civil Twilight Sun does not rise Sun does not rise
Nautical Twilight Sun does not rise Sun does not rise
Astronomical Twilight Sun does not rise Sun does not rise
Moon No Moon Rise 2:12 AM AKDT (7/11)
Length of Visible Light 24h 00m
Length of Day
24h 00m
Tomorrow will be 0m 0s shorter.
Full, 100% of the Moon is Illuminated
Jul 12
Full
Jul 12
Full
Jul 18
Last Quarter
Jul 26
New
Aug 3
First Quarter

Community

WunderPhotos

Upload Photos

1,732,718 photos uploaded!

Nearby

Snow Depth

Station Depth Elevation
Imnaviat Creek 0 in 3050 ft
Atigun Pass 0 in 4800 ft
Coldfoot 0 in 1040 ft
Gobblers Knob 0 in 2030 ft
Fort Yukon 1 in 430 ft

Earthquake Activity

City Distance Mag. Time & Date
No recent earthquake activity has been reported nearby.
Minimum magnitude displayed is 2.5.

Coastal Water Temperatures

Place Temperature
No Stations Reporting

Nearby Weather Stations

Station Location Temp. Windchill Dew Point Humidity Wind Precip. Elev Updated Type
HADS JUDY CREEK NEAR NUIQSUT 17W , Barrow, AK 41 °F 41 °F - - North  at  - 0.00 in / hr 42 ft 10:00 PM AKDT MADIS

Show More Stations Show Fewer Stations